sensor_id;sensor_type;location;lat;lon;timestamp;P1;durP1;ratioP1;P2;durP2;ratioP2
1174;SDS011;576;48.418;10.074;2024-01-16T00:02:20;1.97;;;1.80;;
1174;SDS011;576;48.418;10.074;2024-01-16T00:04:48;1.67;;;1.57;;
1174;SDS011;576;48.418;10.074;2024-01-16T00:07:16;1.93;;;1.83;;
1174;SDS011;576;48.418;10.074;2024-01-16T00:09:44;1.60;;;1.40;;
1174;SDS011;576;48.418;10.074;2024-01-16T00:12:13;1.40;;;1.30;;
1174;SDS011;576;48.418;10.074;2024-01-16T00:14:41;2.60;;;1.50;;
1174;SDS011;576;48.418;10.074;2024-01-16T00:17:10;1.37;;;1.20;;
1174;SDS011;576;48.418;10.074;2024-01-16T00:19:41;1.90;;;1.47;;
1174;SDS011;576;48.418;10.074;2024-01-16T00:22:09;1.67;;;1.57;;
1174;SDS011;576;48.418;10.074;2024-01-16T00:24:37;1.87;;;1.77;;
1174;SDS011;576;48.418;10.074;2024-01-16T00:27:05;1.70;;;1.60;;
1174;SDS011;576;48.418;10.074;2024-01-16T00:29:37;1.40;;;1.30;;
1174;SDS011;576;48.418;10.074;2024-01-16T00:32:05;1.70;;;1.60;;
1174;SDS011;576;48.418;10.074;2024-01-16T00:34:34;1.50;;;1.40;;
1174;SDS011;576;48.418;10.074;2024-01-16T00:37:04;2.17;;;1.57;;
1174;SDS011;576;48.418;10.074;2024-01-16T00:39:32;1.50;;;1.40;;
1174;SDS011;576;48.418;10.074;2024-01-16T00:42:00;1.53;;;1.30;;
1174;SDS011;576;48.418;10.074;2024-01-16T00:44:29;1.30;;;1.20;;
1174;SDS011;576;48.418;10.074;2024-01-16T00:46:57;1.30;;;1.20;;
1174;SDS011;576;48.418;10.074;2024-01-16T00:49:28;1.53;;;1.43;;
1174;SDS011;576;48.418;10.074;2024-01-16T00:51:56;1.30;;;1.20;;
1174;SDS011;576;48.418;10.074;2024-01-16T00:54:26;1.60;;;1.50;;
1174;SDS011;576;48.418;10.074;2024-01-16T00:56:54;1.47;;;1.37;;
1174;SDS011;576;48.418;10.074;2024-01-16T00:59:26;1.40;;;1.30;;
1174;SDS011;576;48.418;10.074;2024-01-16T01:01:54;1.63;;;1.53;;
1174;SDS011;576;48.418;10.074;2024-01-16T01:04:22;1.40;;;1.20;;
1174;SDS011;576;48.418;10.074;2024-01-16T01:06:51;1.23;;;1.10;;
1174;SDS011;576;48.418;10.074;2024-01-16T01:09:20;1.57;;;1.47;;
1174;SDS011;576;48.418;10.074;2024-01-16T01:11:49;1.20;;;1.10;;
1174;SDS011;576;48.418;10.074;2024-01-16T01:14:18;1.23;;;1.07;;
1174;SDS011;576;48.418;10.074;2024-01-16T01:16:46;1.40;;;1.27;;
1174;SDS011;576;48.418;10.074;2024-01-16T01:19:15;1.67;;;1.57;;
1174;SDS011;576;48.418;10.074;2024-01-16T01:21:43;1.47;;;1.40;;
1174;SDS011;576;48.418;10.074;2024-01-16T01:24:11;1.60;;;1.50;;
1174;SDS011;576;48.418;10.074;2024-01-16T01:26:41;1.43;;;1.33;;
1174;SDS011;576;48.418;10.074;2024-01-16T01:29:12;1.20;;;1.10;;
1174;SDS011;576;48.418;10.074;2024-01-16T01:31:40;1.60;;;1.50;;
1174;SDS011;576;48.418;10.074;2024-01-16T01:34:12;1.53;;;1.37;;
1174;SDS011;576;48.418;10.074;2024-01-16T01:36:40;1.63;;;1.53;;
1174;SDS011;576;48.418;10.074;2024-01-16T01:39:09;1.47;;;1.40;;
1174;SDS011;576;48.418;10.074;2024-01-16T01:41:38;1.23;;;1.13;;
1174;SDS011;576;48.418;10.074;2024-01-16T01:44:06;1.20;;;1.20;;
1174;SDS011;576;48.418;10.074;2024-01-16T01:46:43;3.57;;;1.27;;
1174;SDS011;576;48.418;10.074;2024-01-16T01:49:13;1.27;;;1.17;;
1174;SDS011;576;48.418;10.074;2024-01-16T01:51:43;1.50;;;1.30;;
1174;SDS011;576;48.418;10.074;2024-01-16T01:54:11;1.67;;;1.50;;
1174;SDS011;576;48.418;10.074;2024-01-16T01:56:42;2.93;;;1.40;;
1174;SDS011;576;48.418;10.074;2024-01-16T01:59:11;1.40;;;1.30;;
1174;SDS011;576;48.418;10.074;2024-01-16T02:01:42;1.37;;;1.27;;
1174;SDS011;576;48.418;10.074;2024-01-16T02:04:12;1.63;;;1.50;;
1174;SDS011;576;48.418;10.074;2024-01-16T02:06:42;2.17;;;1.77;;
1174;SDS011;576;48.418;10.074;2024-01-16T02:09:11;1.83;;;1.50;;
1174;SDS011;576;48.418;10.074;2024-01-16T02:11:40;2.23;;;1.27;;
1174;SDS011;576;48.418;10.074;2024-01-16T02:14:09;1.43;;;1.33;;
1174;SDS011;576;48.418;10.074;2024-01-16T02:16:39;1.53;;;1.43;;
1174;SDS011;576;48.418;10.074;2024-01-16T02:19:12;1.30;;;1.20;;
1174;SDS011;576;48.418;10.074;2024-01-16T02:21:41;1.53;;;1.30;;
1174;SDS011;576;48.418;10.074;2024-01-16T02:24:18;1.33;;;1.23;;
1174;SDS011;576;48.418;10.074;2024-01-16T02:26:47;1.63;;;1.40;;
1174;SDS011;576;48.418;10.074;2024-01-16T02:29:15;1.50;;;1.40;;
1174;SDS011;576;48.418;10.074;2024-01-16T02:31:44;1.40;;;1.30;;
1174;SDS011;576;48.418;10.074;2024-01-16T02:34:12;3.23;;;1.40;;
1174;SDS011;576;48.418;10.074;2024-01-16T02:36:41;1.67;;;1.50;;
1174;SDS011;576;48.418;10.074;2024-01-16T02:39:09;1.93;;;1.20;;
1174;SDS011;576;48.418;10.074;2024-01-16T02:41:39;1.47;;;1.37;;
1174;SDS011;576;48.418;10.074;2024-01-16T02:44:07;1.97;;;1.47;;
1174;SDS011;576;48.418;10.074;2024-01-16T02:46:35;1.40;;;1.30;;
1174;SDS011;576;48.418;10.074;2024-01-16T02:49:05;1.97;;;1.77;;
1174;SDS011;576;48.418;10.074;2024-01-16T02:51:34;1.60;;;1.50;;
1174;SDS011;576;48.418;10.074;2024-01-16T02:54:02;1.00;;;0.93;;
1174;SDS011;576;48.418;10.074;2024-01-16T02:56:31;1.57;;;1.47;;
1174;SDS011;576;48.418;10.074;2024-01-16T02:59:00;1.70;;;1.60;;
1174;SDS011;576;48.418;10.074;2024-01-16T03:01:29;1.30;;;1.17;;
1174;SDS011;576;48.418;10.074;2024-01-16T03:03:57;1.80;;;1.30;;
1174;SDS011;576;48.418;10.074;2024-01-16T03:06:25;1.83;;;1.40;;
1174;SDS011;576;48.418;10.074;2024-01-16T03:08:55;1.37;;;1.27;;
1174;SDS011;576;48.418;10.074;2024-01-16T03:11:23;1.20;;;1.10;;
1174;SDS011;576;48.418;10.074;2024-01-16T03:13:52;1.63;;;1.50;;
1174;SDS011;576;48.418;10.074;2024-01-16T03:16:21;1.53;;;1.30;;
1174;SDS011;576;48.418;10.074;2024-01-16T03:18:50;2.70;;;1.90;;
1174;SDS011;576;48.418;10.074;2024-01-16T03:21:18;1.67;;;1.20;;
1174;SDS011;576;48.418;10.074;2024-01-16T03:23:46;1.17;;;1.13;;
1174;SDS011;576;48.418;10.074;2024-01-16T03:26:15;2.60;;;1.40;;
1174;SDS011;576;48.418;10.074;2024-01-16T03:28:44;1.23;;;1.13;;
1174;SDS011;576;48.418;10.074;2024-01-16T03:31:12;1.40;;;1.30;;
1174;SDS011;576;48.418;10.074;2024-01-16T03:33:42;1.77;;;1.13;;
1174;SDS011;576;48.418;10.074;2024-01-16T03:36:12;1.43;;;1.33;;
1174;SDS011;576;48.418;10.074;2024-01-16T03:38:41;1.80;;;1.70;;
1174;SDS011;576;48.418;10.074;2024-01-16T03:41:10;1.50;;;1.40;;
1174;SDS011;576;48.418;10.074;2024-01-16T03:43:39;1.10;;;1.10;;
1174;SDS011;576;48.418;10.074;2024-01-16T03:46:07;1.53;;;1.40;;
1174;SDS011;576;48.418;10.074;2024-01-16T03:48:37;1.30;;;1.20;;
1174;SDS011;576;48.418;10.074;2024-01-16T03:51:07;1.87;;;1.67;;
1174;SDS011;576;48.418;10.074;2024-01-16T03:53:37;2.10;;;1.90;;
1174;SDS011;576;48.418;10.074;2024-01-16T03:56:05;1.90;;;1.60;;
1174;SDS011;576;48.418;10.074;2024-01-16T03:58:34;2.57;;;1.30;;
1174;SDS011;576;48.418;10.074;2024-01-16T04:01:02;1.00;;;1.00;;
1174;SDS011;576;48.418;10.074;2024-01-16T04:03:31;1.47;;;1.37;;
1174;SDS011;576;48.418;10.074;2024-01-16T04:05:59;1.70;;;1.20;;
1174;SDS011;576;48.418;10.074;2024-01-16T04:08:29;1.97;;;1.30;;
1174;SDS011;576;48.418;10.074;2024-01-16T04:10:57;1.37;;;1.27;;
1174;SDS011;576;48.418;10.074;2024-01-16T04:13:25;1.50;;;1.40;;
1174;SDS011;576;48.418;10.074;2024-01-16T04:15:54;1.40;;;1.30;;
1174;SDS011;576;48.418;10.074;2024-01-16T04:18:22;1.80;;;1.30;;
1174;SDS011;576;48.418;10.074;2024-01-16T04:20:50;1.70;;;1.37;;
1174;SDS011;576;48.418;10.074;2024-01-16T04:23:18;1.73;;;1.60;;
1174;SDS011;576;48.418;10.074;2024-01-16T04:25:48;2.07;;;1.27;;
1174;SDS011;576;48.418;10.074;2024-01-16T04:28:16;2.37;;;1.33;;
1174;SDS011;576;48.418;10.074;2024-01-16T04:30:45;1.80;;;1.40;;
1174;SDS011;576;48.418;10.074;2024-01-16T04:33:13;3.43;;;1.57;;
1174;SDS011;576;48.418;10.074;2024-01-16T04:35:42;1.93;;;1.27;;
1174;SDS011;576;48.418;10.074;2024-01-16T04:38:10;2.27;;;1.93;;
1174;SDS011;576;48.418;10.074;2024-01-16T04:40:38;1.47;;;1.37;;
1174;SDS011;576;48.418;10.074;2024-01-16T04:43:08;1.30;;;1.20;;
1174;SDS011;576;48.418;10.074;2024-01-16T04:45:36;1.70;;;1.60;;
1174;SDS011;576;48.418;10.074;2024-01-16T04:48:05;1.87;;;1.73;;
1174;SDS011;576;48.418;10.074;2024-01-16T04:50:35;1.50;;;1.40;;
1174;SDS011;576;48.418;10.074;2024-01-16T04:53:03;1.90;;;1.50;;
1174;SDS011;576;48.418;10.074;2024-01-16T04:55:32;1.90;;;1.70;;
1174;SDS011;576;48.418;10.074;2024-01-16T04:58:00;1.90;;;1.70;;
1174;SDS011;576;48.418;10.074;2024-01-16T05:00:30;2.17;;;1.60;;
1174;SDS011;576;48.418;10.074;2024-01-16T05:02:58;2.67;;;1.80;;
1174;SDS011;576;48.418;10.074;2024-01-16T05:05:27;1.67;;;1.57;;
1174;SDS011;576;48.418;10.074;2024-01-16T05:07:56;2.10;;;1.37;;
1174;SDS011;576;48.418;10.074;2024-01-16T05:10:24;2.17;;;1.73;;
1174;SDS011;576;48.418;10.074;2024-01-16T05:12:52;2.30;;;1.67;;
1174;SDS011;576;48.418;10.074;2024-01-16T05:15:20;2.50;;;2.30;;
1174;SDS011;576;48.418;10.074;2024-01-16T05:17:50;1.60;;;1.30;;
1174;SDS011;576;48.418;10.074;2024-01-16T05:20:20;2.60;;;2.20;;
1174;SDS011;576;48.418;10.074;2024-01-16T05:22:49;1.67;;;1.57;;
1174;SDS011;576;48.418;10.074;2024-01-16T05:25:17;1.97;;;1.77;;
1174;SDS011;576;48.418;10.074;2024-01-16T05:27:46;1.40;;;1.30;;
1174;SDS011;576;48.418;10.074;2024-01-16T05:30:15;1.63;;;1.33;;
1174;SDS011;576;48.418;10.074;2024-01-16T05:32:44;2.03;;;1.77;;
1174;SDS011;576;48.418;10.074;2024-01-16T05:35:14;3.53;;;1.80;;
1174;SDS011;576;48.418;10.074;2024-01-16T05:37:42;1.97;;;1.80;;
1174;SDS011;576;48.418;10.074;2024-01-16T05:40:11;1.40;;;1.20;;
1174;SDS011;576;48.418;10.074;2024-01-16T05:42:39;3.43;;;1.57;;
1174;SDS011;576;48.418;10.074;2024-01-16T05:45:08;2.83;;;1.67;;
1174;SDS011;576;48.418;10.074;2024-01-16T05:47:36;1.83;;;1.60;;
1174;SDS011;576;48.418;10.074;2024-01-16T05:50:05;4.50;;;1.90;;
1174;SDS011;576;48.418;10.074;2024-01-16T05:52:37;1.67;;;1.57;;
1174;SDS011;576;48.418;10.074;2024-01-16T05:55:09;2.27;;;1.80;;
1174;SDS011;576;48.418;10.074;2024-01-16T05:57:37;3.10;;;1.47;;
1174;SDS011;576;48.418;10.074;2024-01-16T06:00:06;1.23;;;1.13;;
1174;SDS011;576;48.418;10.074;2024-01-16T06:02:35;1.60;;;1.50;;
1174;SDS011;576;48.418;10.074;2024-01-16T06:05:03;1.60;;;1.23;;
1174;SDS011;576;48.418;10.074;2024-01-16T06:07:32;3.10;;;1.80;;
1174;SDS011;576;48.418;10.074;2024-01-16T06:10:02;1.27;;;1.17;;
1174;SDS011;576;48.418;10.074;2024-01-16T06:12:32;1.50;;;1.37;;
1174;SDS011;576;48.418;10.074;2024-01-16T06:15:01;1.60;;;1.50;;
1174;SDS011;576;48.418;10.074;2024-01-16T06:17:29;2.40;;;2.20;;
1174;SDS011;576;48.418;10.074;2024-01-16T06:19:57;3.73;;;2.00;;
1174;SDS011;576;48.418;10.074;2024-01-16T06:22:26;2.30;;;1.73;;
1174;SDS011;576;48.418;10.074;2024-01-16T06:24:54;1.70;;;1.37;;
1174;SDS011;576;48.418;10.074;2024-01-16T06:27:23;1.37;;;1.17;;
1174;SDS011;576;48.418;10.074;2024-01-16T06:29:52;1.77;;;1.67;;
1174;SDS011;576;48.418;10.074;2024-01-16T06:32:20;2.37;;;1.50;;
1174;SDS011;576;48.418;10.074;2024-01-16T06:34:48;3.63;;;1.83;;
1174;SDS011;576;48.418;10.074;2024-01-16T06:37:16;2.97;;;2.13;;
1174;SDS011;576;48.418;10.074;2024-01-16T06:39:45;2.60;;;1.63;;
1174;SDS011;576;48.418;10.074;2024-01-16T06:42:13;2.60;;;1.70;;
1174;SDS011;576;48.418;10.074;2024-01-16T06:44:42;3.57;;;2.40;;
1174;SDS011;576;48.418;10.074;2024-01-16T06:47:11;3.80;;;2.87;;
1174;SDS011;576;48.418;10.074;2024-01-16T06:49:39;4.33;;;2.67;;
1174;SDS011;576;48.418;10.074;2024-01-16T06:52:07;4.97;;;1.93;;
1174;SDS011;576;48.418;10.074;2024-01-16T06:54:36;3.37;;;2.30;;
1174;SDS011;576;48.418;10.074;2024-01-16T06:57:04;3.53;;;2.00;;
1174;SDS011;576;48.418;10.074;2024-01-16T06:59:33;3.33;;;2.03;;
1174;SDS011;576;48.418;10.074;2024-01-16T07:02:02;2.23;;;2.03;;
1174;SDS011;576;48.418;10.074;2024-01-16T07:04:31;2.63;;;1.93;;
1174;SDS011;576;48.418;10.074;2024-01-16T07:06:59;5.40;;;2.23;;
1174;SDS011;576;48.418;10.074;2024-01-16T07:09:27;5.63;;;1.83;;
1174;SDS011;576;48.418;10.074;2024-01-16T07:11:55;5.10;;;2.27;;
1174;SDS011;576;48.418;10.074;2024-01-16T07:14:24;3.53;;;2.40;;
1174;SDS011;576;48.418;10.074;2024-01-16T07:16:52;2.30;;;2.10;;
1174;SDS011;576;48.418;10.074;2024-01-16T07:19:22;2.67;;;1.90;;
1174;SDS011;576;48.418;10.074;2024-01-16T07:21:50;2.40;;;1.80;;
1174;SDS011;576;48.418;10.074;2024-01-16T07:24:18;4.30;;;2.17;;
1174;SDS011;576;48.418;10.074;2024-01-16T07:26:46;5.10;;;2.07;;
1174;SDS011;576;48.418;10.074;2024-01-16T07:29:15;3.70;;;2.47;;
1174;SDS011;576;48.418;10.074;2024-01-16T07:31:43;5.07;;;2.17;;
1174;SDS011;576;48.418;10.074;2024-01-16T07:34:11;2.70;;;1.60;;
1174;SDS011;576;48.418;10.074;2024-01-16T07:36:45;2.27;;;1.57;;
1174;SDS011;576;48.418;10.074;2024-01-16T07:39:13;3.20;;;2.30;;
1174;SDS011;576;48.418;10.074;2024-01-16T07:41:42;5.37;;;2.07;;
1174;SDS011;576;48.418;10.074;2024-01-16T07:44:11;2.20;;;1.90;;
1174;SDS011;576;48.418;10.074;2024-01-16T07:46:39;4.67;;;2.13;;
1174;SDS011;576;48.418;10.074;2024-01-16T07:49:07;4.27;;;2.67;;
1174;SDS011;576;48.418;10.074;2024-01-16T07:51:36;2.60;;;2.10;;
1174;SDS011;576;48.418;10.074;2024-01-16T07:54:06;2.63;;;2.10;;
1174;SDS011;576;48.418;10.074;2024-01-16T07:56:35;3.43;;;2.17;;
1174;SDS011;576;48.418;10.074;2024-01-16T07:59:05;2.40;;;2.20;;
1174;SDS011;576;48.418;10.074;2024-01-16T08:01:33;3.33;;;1.97;;
1174;SDS011;576;48.418;10.074;2024-01-16T08:04:02;2.10;;;1.93;;
1174;SDS011;576;48.418;10.074;2024-01-16T08:06:31;4.30;;;2.70;;
1174;SDS011;576;48.418;10.074;2024-01-16T08:08:59;3.20;;;2.07;;
1174;SDS011;576;48.418;10.074;2024-01-16T08:11:29;4.27;;;2.10;;
1174;SDS011;576;48.418;10.074;2024-01-16T08:13:58;3.40;;;2.07;;
1174;SDS011;576;48.418;10.074;2024-01-16T08:16:26;2.17;;;2.00;;
1174;SDS011;576;48.418;10.074;2024-01-16T08:18:54;2.90;;;2.30;;
1174;SDS011;576;48.418;10.074;2024-01-16T08:21:23;3.57;;;1.90;;
1174;SDS011;576;48.418;10.074;2024-01-16T08:23:51;3.33;;;2.33;;
1174;SDS011;576;48.418;10.074;2024-01-16T08:26:19;2.63;;;1.97;;
1174;SDS011;576;48.418;10.074;2024-01-16T08:28:49;2.27;;;2.07;;
1174;SDS011;576;48.418;10.074;2024-01-16T08:31:17;2.27;;;1.83;;
1174;SDS011;576;48.418;10.074;2024-01-16T08:33:46;1.97;;;1.77;;
1174;SDS011;576;48.418;10.074;2024-01-16T08:36:18;3.23;;;1.83;;
1174;SDS011;576;48.418;10.074;2024-01-16T08:38:47;2.03;;;1.70;;
1174;SDS011;576;48.418;10.074;2024-01-16T08:41:15;3.17;;;1.90;;
1174;SDS011;576;48.418;10.074;2024-01-16T08:43:43;2.60;;;2.17;;
1174;SDS011;576;48.418;10.074;2024-01-16T08:46:13;2.97;;;2.23;;
1174;SDS011;576;48.418;10.074;2024-01-16T08:48:41;2.40;;;1.83;;
1174;SDS011;576;48.418;10.074;2024-01-16T08:51:10;2.37;;;2.17;;
1174;SDS011;576;48.418;10.074;2024-01-16T08:53:40;2.80;;;1.90;;
1174;SDS011;576;48.418;10.074;2024-01-16T08:56:09;2.20;;;1.83;;
1174;SDS011;576;48.418;10.074;2024-01-16T08:58:39;1.83;;;1.73;;
1174;SDS011;576;48.418;10.074;2024-01-16T09:01:07;1.97;;;1.50;;
1174;SDS011;576;48.418;10.074;2024-01-16T09:03:38;3.10;;;2.90;;
1174;SDS011;576;48.418;10.074;2024-01-16T09:06:06;2.27;;;2.07;;
1174;SDS011;576;48.418;10.074;2024-01-16T09:08:35;2.30;;;2.07;;
1174;SDS011;576;48.418;10.074;2024-01-16T09:11:03;1.70;;;1.50;;
1174;SDS011;576;48.418;10.074;2024-01-16T09:13:32;2.00;;;1.80;;
1174;SDS011;576;48.418;10.074;2024-01-16T09:16:00;2.80;;;1.93;;
1174;SDS011;576;48.418;10.074;2024-01-16T09:18:28;1.53;;;1.43;;
1174;SDS011;576;48.418;10.074;2024-01-16T09:20:58;1.90;;;1.80;;
1174;SDS011;576;48.418;10.074;2024-01-16T09:23:26;2.30;;;2.10;;
1174;SDS011;576;48.418;10.074;2024-01-16T09:25:54;2.40;;;1.33;;
1174;SDS011;576;48.418;10.074;2024-01-16T09:28:23;2.10;;;1.80;;
1174;SDS011;576;48.418;10.074;2024-01-16T09:30:51;1.93;;;1.83;;
1174;SDS011;576;48.418;10.074;2024-01-16T09:33:22;2.07;;;1.87;;
1174;SDS011;576;48.418;10.074;2024-01-16T09:35:52;1.80;;;1.40;;
1174;SDS011;576;48.418;10.074;2024-01-16T09:38:21;1.60;;;1.50;;
1174;SDS011;576;48.418;10.074;2024-01-16T09:40:50;1.60;;;1.50;;
1174;SDS011;576;48.418;10.074;2024-01-16T09:43:19;2.07;;;1.87;;
1174;SDS011;576;48.418;10.074;2024-01-16T09:45:48;1.70;;;1.60;;
1174;SDS011;576;48.418;10.074;2024-01-16T09:48:18;1.80;;;1.70;;
1174;SDS011;576;48.418;10.074;2024-01-16T09:50:47;1.90;;;1.80;;
1174;SDS011;576;48.418;10.074;2024-01-16T09:53:15;1.80;;;1.70;;
1174;SDS011;576;48.418;10.074;2024-01-16T09:55:45;1.97;;;1.80;;
1174;SDS011;576;48.418;10.074;2024-01-16T09:58:15;1.93;;;1.80;;
1174;SDS011;576;48.418;10.074;2024-01-16T10:00:51;2.10;;;1.70;;
1174;SDS011;576;48.418;10.074;2024-01-16T10:03:20;1.70;;;1.60;;
1174;SDS011;576;48.418;10.074;2024-01-16T10:05:48;2.03;;;1.70;;
1174;SDS011;576;48.418;10.074;2024-01-16T10:08:17;1.47;;;1.37;;
1174;SDS011;576;48.418;10.074;2024-01-16T10:10:49;1.87;;;1.70;;
1174;SDS011;576;48.418;10.074;2024-01-16T10:13:19;1.57;;;1.43;;
1174;SDS011;576;48.418;10.074;2024-01-16T10:15:49;2.20;;;2.10;;
1174;SDS011;576;48.418;10.074;2024-01-16T10:18:22;1.60;;;1.50;;
1174;SDS011;576;48.418;10.074;2024-01-16T10:20:52;2.30;;;2.10;;
1174;SDS011;576;48.418;10.074;2024-01-16T10:23:24;1.80;;;1.70;;
1174;SDS011;576;48.418;10.074;2024-01-16T10:26:08;2.03;;;1.60;;
1174;SDS011;576;48.418;10.074;2024-01-16T10:28:37;2.17;;;1.80;;
1174;SDS011;576;48.418;10.074;2024-01-16T10:31:07;1.90;;;1.80;;
1174;SDS011;576;48.418;10.074;2024-01-16T10:33:37;3.70;;;2.17;;
1174;SDS011;576;48.418;10.074;2024-01-16T10:36:10;1.77;;;1.67;;
1174;SDS011;576;48.418;10.074;2024-01-16T10:38:39;1.80;;;1.70;;
1174;SDS011;576;48.418;10.074;2024-01-16T10:41:10;2.87;;;2.17;;
1174;SDS011;576;48.418;10.074;2024-01-16T10:43:40;2.20;;;2.10;;
1174;SDS011;576;48.418;10.074;2024-01-16T10:46:11;2.00;;;1.70;;
1174;SDS011;576;48.418;10.074;2024-01-16T10:48:41;2.30;;;1.93;;
1174;SDS011;576;48.418;10.074;2024-01-16T10:51:11;2.80;;;2.13;;
1174;SDS011;576;48.418;10.074;2024-01-16T10:53:42;1.90;;;1.80;;
1174;SDS011;576;48.418;10.074;2024-01-16T10:56:14;2.20;;;2.00;;
1174;SDS011;576;48.418;10.074;2024-01-16T10:58:46;1.70;;;1.60;;
1174;SDS011;576;48.418;10.074;2024-01-16T11:01:26;1.60;;;1.50;;
1174;SDS011;576;48.418;10.074;2024-01-16T11:03:55;2.03;;;1.87;;
1174;SDS011;576;48.418;10.074;2024-01-16T11:06:25;2.00;;;1.83;;
1174;SDS011;576;48.418;10.074;2024-01-16T11:08:55;2.00;;;1.80;;
1174;SDS011;576;48.418;10.074;2024-01-16T11:11:26;2.20;;;2.03;;
1174;SDS011;576;48.418;10.074;2024-01-16T11:13:55;1.90;;;1.80;;
1174;SDS011;576;48.418;10.074;2024-01-16T11:16:25;2.03;;;1.90;;
1174;SDS011;576;48.418;10.074;2024-01-16T11:18:53;2.47;;;2.20;;
1174;SDS011;576;48.418;10.074;2024-01-16T11:21:42;2.40;;;2.07;;
1174;SDS011;576;48.418;10.074;2024-01-16T11:24:11;2.20;;;2.00;;
1174;SDS011;576;48.418;10.074;2024-01-16T11:26:41;1.97;;;1.80;;
1174;SDS011;576;48.418;10.074;2024-01-16T11:32:02;2.43;;;2.03;;
1174;SDS011;576;48.418;10.074;2024-01-16T11:34:54;2.40;;;2.20;;
1174;SDS011;576;48.418;10.074;2024-01-16T11:37:25;1.90;;;1.80;;
1174;SDS011;576;48.418;10.074;2024-01-16T11:42:54;2.83;;;2.63;;
1174;SDS011;576;48.418;10.074;2024-01-16T11:45:47;2.10;;;1.90;;
1174;SDS011;576;48.418;10.074;2024-01-16T11:48:17;2.93;;;2.30;;
1174;SDS011;576;48.418;10.074;2024-01-16T11:50:46;2.23;;;2.03;;
1174;SDS011;576;48.418;10.074;2024-01-16T11:56:12;2.60;;;2.40;;
1174;SDS011;576;48.418;10.074;2024-01-16T11:59:37;3.73;;;2.60;;
1174;SDS011;576;48.418;10.074;2024-01-16T12:02:29;2.57;;;2.37;;
1174;SDS011;576;48.418;10.074;2024-01-16T12:05:06;3.67;;;3.13;;
1174;SDS011;576;48.418;10.074;2024-01-16T12:07:47;3.50;;;2.77;;
1174;SDS011;576;48.418;10.074;2024-01-16T12:10:17;4.97;;;2.50;;
1174;SDS011;576;48.418;10.074;2024-01-16T12:12:46;2.93;;;2.30;;
1174;SDS011;576;48.418;10.074;2024-01-16T12:15:17;2.73;;;2.53;;
1174;SDS011;576;48.418;10.074;2024-01-16T12:17:52;3.00;;;2.57;;
1174;SDS011;576;48.418;10.074;2024-01-16T12:20:23;5.97;;;3.20;;
1174;SDS011;576;48.418;10.074;2024-01-16T12:22:53;3.23;;;2.70;;
1174;SDS011;576;48.418;10.074;2024-01-16T12:25:25;4.17;;;2.93;;
1174;SDS011;576;48.418;10.074;2024-01-16T12:28:14;4.97;;;2.50;;
1174;SDS011;576;48.418;10.074;2024-01-16T12:31:00;4.87;;;2.73;;
1174;SDS011;576;48.418;10.074;2024-01-16T12:33:29;3.00;;;2.80;;
1174;SDS011;576;48.418;10.074;2024-01-16T12:36:02;2.40;;;2.20;;
1174;SDS011;576;48.418;10.074;2024-01-16T12:38:32;3.20;;;2.73;;
1174;SDS011;576;48.418;10.074;2024-01-16T12:41:02;2.63;;;2.43;;
1174;SDS011;576;48.418;10.074;2024-01-16T12:43:34;3.00;;;2.53;;
1174;SDS011;576;48.418;10.074;2024-01-16T12:46:06;2.97;;;2.40;;
1174;SDS011;576;48.418;10.074;2024-01-16T12:48:34;2.77;;;2.40;;
1174;SDS011;576;48.418;10.074;2024-01-16T12:51:21;2.67;;;2.40;;
1174;SDS011;576;48.418;10.074;2024-01-16T12:53:49;4.03;;;2.33;;
1174;SDS011;576;48.418;10.074;2024-01-16T12:56:18;4.07;;;2.47;;
1174;SDS011;576;48.418;10.074;2024-01-16T12:59:08;2.37;;;2.03;;
1174;SDS011;576;48.418;10.074;2024-01-16T13:01:39;3.37;;;2.60;;
1174;SDS011;576;48.418;10.074;2024-01-16T13:04:09;2.47;;;2.20;;
1174;SDS011;576;48.418;10.074;2024-01-16T13:06:38;4.70;;;1.90;;
1174;SDS011;576;48.418;10.074;2024-01-16T13:09:10;2.10;;;1.93;;
1174;SDS011;576;48.418;10.074;2024-01-16T13:11:46;2.40;;;2.20;;
1174;SDS011;576;48.418;10.074;2024-01-16T13:14:19;2.93;;;2.07;;
1174;SDS011;576;48.418;10.074;2024-01-16T13:16:50;2.60;;;2.40;;
1174;SDS011;576;48.418;10.074;2024-01-16T13:19:22;3.87;;;3.57;;
1174;SDS011;576;48.418;10.074;2024-01-16T13:21:52;1.70;;;1.60;;
1174;SDS011;576;48.418;10.074;2024-01-16T13:24:21;2.60;;;1.97;;
1174;SDS011;576;48.418;10.074;2024-01-16T13:26:50;2.93;;;2.10;;
1174;SDS011;576;48.418;10.074;2024-01-16T13:29:19;2.17;;;2.00;;
1174;SDS011;576;48.418;10.074;2024-01-16T13:31:47;2.90;;;1.93;;
1174;SDS011;576;48.418;10.074;2024-01-16T13:34:22;3.30;;;1.90;;
1174;SDS011;576;48.418;10.074;2024-01-16T13:36:52;1.97;;;1.87;;
1174;SDS011;576;48.418;10.074;2024-01-16T13:39:41;2.10;;;1.90;;
1174;SDS011;576;48.418;10.074;2024-01-16T13:42:10;2.17;;;2.07;;
1174;SDS011;576;48.418;10.074;2024-01-16T13:44:38;2.13;;;1.93;;
1174;SDS011;576;48.418;10.074;2024-01-16T13:47:08;2.90;;;2.40;;
1174;SDS011;576;48.418;10.074;2024-01-16T13:49:41;2.33;;;2.10;;
1174;SDS011;576;48.418;10.074;2024-01-16T13:52:10;2.93;;;2.43;;
1174;SDS011;576;48.418;10.074;2024-01-16T13:54:38;2.50;;;2.30;;
1174;SDS011;576;48.418;10.074;2024-01-16T13:57:06;1.87;;;1.50;;
1174;SDS011;576;48.418;10.074;2024-01-16T13:59:39;2.50;;;2.30;;
1174;SDS011;576;48.418;10.074;2024-01-16T14:02:08;2.57;;;1.60;;
1174;SDS011;576;48.418;10.074;2024-01-16T14:04:37;2.70;;;1.70;;
1174;SDS011;576;48.418;10.074;2024-01-16T14:07:05;2.47;;;1.87;;
1174;SDS011;576;48.418;10.074;2024-01-16T14:09:39;3.67;;;2.17;;
1174;SDS011;576;48.418;10.074;2024-01-16T14:12:11;4.60;;;2.00;;
1174;SDS011;576;48.418;10.074;2024-01-16T14:14:41;1.60;;;1.50;;
1174;SDS011;576;48.418;10.074;2024-01-16T14:17:11;1.83;;;1.57;;
1174;SDS011;576;48.418;10.074;2024-01-16T14:19:39;3.13;;;2.10;;
1174;SDS011;576;48.418;10.074;2024-01-16T14:22:07;2.13;;;1.93;;
1174;SDS011;576;48.418;10.074;2024-01-16T14:24:36;2.00;;;1.80;;
1174;SDS011;576;48.418;10.074;2024-01-16T14:27:05;2.07;;;1.87;;
1174;SDS011;576;48.418;10.074;2024-01-16T14:29:36;1.70;;;1.60;;
1174;SDS011;576;48.418;10.074;2024-01-16T14:32:06;2.27;;;2.07;;
1174;SDS011;576;48.418;10.074;2024-01-16T14:34:36;1.93;;;1.70;;
1174;SDS011;576;48.418;10.074;2024-01-16T14:37:04;3.20;;;1.67;;
1174;SDS011;576;48.418;10.074;2024-01-16T14:39:33;1.70;;;1.60;;
1174;SDS011;576;48.418;10.074;2024-01-16T14:42:03;2.23;;;2.13;;
1174;SDS011;576;48.418;10.074;2024-01-16T14:44:32;5.37;;;2.23;;
1174;SDS011;576;48.418;10.074;2024-01-16T14:47:02;2.70;;;1.90;;
1174;SDS011;576;48.418;10.074;2024-01-16T14:49:30;1.70;;;1.60;;
1174;SDS011;576;48.418;10.074;2024-01-16T14:52:00;2.20;;;1.80;;
1174;SDS011;576;48.418;10.074;2024-01-16T14:54:28;2.00;;;1.70;;
1174;SDS011;576;48.418;10.074;2024-01-16T14:56:57;2.27;;;1.80;;
1174;SDS011;576;48.418;10.074;2024-01-16T14:59:25;3.20;;;1.93;;
1174;SDS011;576;48.418;10.074;2024-01-16T15:01:54;2.13;;;1.97;;
1174;SDS011;576;48.418;10.074;2024-01-16T15:04:22;2.10;;;1.90;;
1174;SDS011;576;48.418;10.074;2024-01-16T15:06:50;1.57;;;1.47;;
1174;SDS011;576;48.418;10.074;2024-01-16T15:09:21;1.80;;;1.70;;
1174;SDS011;576;48.418;10.074;2024-01-16T15:11:49;1.37;;;1.27;;
1174;SDS011;576;48.418;10.074;2024-01-16T15:14:17;1.63;;;1.50;;
1174;SDS011;576;48.418;10.074;2024-01-16T15:16:45;2.20;;;1.73;;
1174;SDS011;576;48.418;10.074;2024-01-16T15:19:14;1.60;;;1.50;;
1174;SDS011;576;48.418;10.074;2024-01-16T15:21:42;2.00;;;1.90;;
1174;SDS011;576;48.418;10.074;2024-01-16T15:24:12;1.50;;;1.40;;
1174;SDS011;576;48.418;10.074;2024-01-16T15:26:46;1.73;;;1.63;;
1174;SDS011;576;48.418;10.074;2024-01-16T15:29:14;1.93;;;1.83;;
1174;SDS011;576;48.418;10.074;2024-01-16T15:31:42;2.10;;;1.53;;
1174;SDS011;576;48.418;10.074;2024-01-16T15:34:11;1.60;;;1.50;;
1174;SDS011;576;48.418;10.074;2024-01-16T15:36:42;2.20;;;1.80;;
1174;SDS011;576;48.418;10.074;2024-01-16T15:39:11;2.30;;;1.87;;
1174;SDS011;576;48.418;10.074;2024-01-16T15:41:42;2.27;;;1.70;;